sensor_id;sensor_type;location;lat;lon;timestamp;P1;durP1;ratioP1;P2;durP2;ratioP2
25615;SDS011;13482;48.234;13.006;2022-11-02T00:00:25;6.70;;;4.10;;
25615;SDS011;13482;48.234;13.006;2022-11-02T00:02:55;5.97;;;4.32;;
25615;SDS011;13482;48.234;13.006;2022-11-02T00:05:23;5.53;;;4.07;;
25615;SDS011;13482;48.234;13.006;2022-11-02T00:07:52;5.97;;;4.32;;
25615;SDS011;13482;48.234;13.006;2022-11-02T00:10:21;8.95;;;4.65;;
25615;SDS011;13482;48.234;13.006;2022-11-02T00:12:50;5.50;;;4.30;;
25615;SDS011;13482;48.234;13.006;2022-11-02T00:15:18;5.53;;;3.95;;
25615;SDS011;13482;48.234;13.006;2022-11-02T00:17:48;6.82;;;4.85;;
25615;SDS011;13482;48.234;13.006;2022-11-02T00:20:19;6.78;;;4.63;;
25615;SDS011;13482;48.234;13.006;2022-11-02T00:22:47;6.45;;;4.55;;
25615;SDS011;13482;48.234;13.006;2022-11-02T00:25:17;6.38;;;4.15;;
25615;SDS011;13482;48.234;13.006;2022-11-02T00:27:47;7.65;;;4.20;;
25615;SDS011;13482;48.234;13.006;2022-11-02T00:30:15;6.10;;;4.28;;
25615;SDS011;13482;48.234;13.006;2022-11-02T00:32:42;5.53;;;4.03;;
25615;SDS011;13482;48.234;13.006;2022-11-02T00:35:09;5.80;;;4.13;;
25615;SDS011;13482;48.234;13.006;2022-11-02T00:37:37;7.10;;;4.35;;
25615;SDS011;13482;48.234;13.006;2022-11-02T00:40:04;5.25;;;4.13;;
25615;SDS011;13482;48.234;13.006;2022-11-02T00:42:32;6.22;;;4.47;;
25615;SDS011;13482;48.234;13.006;2022-11-02T00:44:59;4.88;;;3.75;;
25615;SDS011;13482;48.234;13.006;2022-11-02T00:47:26;5.93;;;4.47;;
25615;SDS011;13482;48.234;13.006;2022-11-02T00:49:54;6.30;;;4.35;;
25615;SDS011;13482;48.234;13.006;2022-11-02T00:52:21;6.65;;;4.00;;
25615;SDS011;13482;48.234;13.006;2022-11-02T00:54:48;5.80;;;4.05;;
25615;SDS011;13482;48.234;13.006;2022-11-02T00:57:15;4.35;;;3.58;;
25615;SDS011;13482;48.234;13.006;2022-11-02T00:59:43;5.63;;;3.90;;
25615;SDS011;13482;48.234;13.006;2022-11-02T01:02:10;5.30;;;3.75;;
25615;SDS011;13482;48.234;13.006;2022-11-02T01:04:37;4.70;;;3.50;;
25615;SDS011;13482;48.234;13.006;2022-11-02T01:07:04;4.30;;;3.30;;
25615;SDS011;13482;48.234;13.006;2022-11-02T01:09:32;4.93;;;2.90;;
25615;SDS011;13482;48.234;13.006;2022-11-02T01:11:59;3.70;;;2.83;;
25615;SDS011;13482;48.234;13.006;2022-11-02T01:14:26;3.85;;;2.63;;
25615;SDS011;13482;48.234;13.006;2022-11-02T01:16:54;4.13;;;2.88;;
25615;SDS011;13482;48.234;13.006;2022-11-02T01:19:23;3.50;;;2.70;;
25615;SDS011;13482;48.234;13.006;2022-11-02T01:21:51;4.30;;;2.63;;
25615;SDS011;13482;48.234;13.006;2022-11-02T01:24:18;3.53;;;2.53;;
25615;SDS011;13482;48.234;13.006;2022-11-02T01:26:48;3.60;;;2.47;;
25615;SDS011;13482;48.234;13.006;2022-11-02T01:29:17;2.92;;;2.10;;
25615;SDS011;13482;48.234;13.006;2022-11-02T01:31:44;4.82;;;2.83;;
25615;SDS011;13482;48.234;13.006;2022-11-02T01:34:11;3.53;;;2.55;;
25615;SDS011;13482;48.234;13.006;2022-11-02T01:36:38;5.72;;;2.90;;
25615;SDS011;13482;48.234;13.006;2022-11-02T01:39:06;6.93;;;3.38;;
25615;SDS011;13482;48.234;13.006;2022-11-02T01:41:33;6.53;;;3.20;;
25615;SDS011;13482;48.234;13.006;2022-11-02T01:44:01;8.30;;;2.70;;
25615;SDS011;13482;48.234;13.006;2022-11-02T01:49:09;7.45;;;2.85;;
25615;SDS011;13482;48.234;13.006;2022-11-02T01:52:05;3.70;;;1.80;;
25615;SDS011;13482;48.234;13.006;2022-11-02T01:54:41;2.30;;;1.88;;
25615;SDS011;13482;48.234;13.006;2022-11-02T01:57:15;3.67;;;1.90;;
25615;SDS011;13482;48.234;13.006;2022-11-02T01:59:48;6.30;;;1.80;;
25615;SDS011;13482;48.234;13.006;2022-11-02T02:02:39;2.27;;;1.60;;
25615;SDS011;13482;48.234;13.006;2022-11-02T02:05:17;5.30;;;1.50;;
25615;SDS011;13482;48.234;13.006;2022-11-02T02:07:47;2.20;;;1.80;;
25615;SDS011;13482;48.234;13.006;2022-11-02T02:10:16;1.70;;;1.50;;
25615;SDS011;13482;48.234;13.006;2022-11-02T02:12:44;3.35;;;1.80;;
25615;SDS011;13482;48.234;13.006;2022-11-02T02:15:12;3.45;;;1.65;;
25615;SDS011;13482;48.234;13.006;2022-11-02T02:17:46;7.72;;;1.95;;
25615;SDS011;13482;48.234;13.006;2022-11-02T02:29:21;4.60;;;1.67;;
25615;SDS011;13482;48.234;13.006;2022-11-02T02:35:18;2.25;;;1.80;;
25615;SDS011;13482;48.234;13.006;2022-11-02T02:37:56;5.50;;;1.80;;
25615;SDS011;13482;48.234;13.006;2022-11-02T02:43:05;5.38;;;1.92;;
25615;SDS011;13482;48.234;13.006;2022-11-02T02:45:59;9.68;;;2.33;;
25615;SDS011;13482;48.234;13.006;2022-11-02T02:48:32;8.70;;;2.00;;
25615;SDS011;13482;48.234;13.006;2022-11-02T02:51:47;2.70;;;1.75;;
25615;SDS011;13482;48.234;13.006;2022-11-02T02:54:01;8.40;;;2.60;;
25615;SDS011;13482;48.234;13.006;2022-11-02T02:56:44;5.93;;;1.90;;
25615;SDS011;13482;48.234;13.006;2022-11-02T02:59:25;2.10;;;1.63;;
25615;SDS011;13482;48.234;13.006;2022-11-02T03:01:56;3.65;;;1.70;;
25615;SDS011;13482;48.234;13.006;2022-11-02T03:04:24;2.28;;;1.60;;
25615;SDS011;13482;48.234;13.006;2022-11-02T03:06:52;5.15;;;1.50;;
25615;SDS011;13482;48.234;13.006;2022-11-02T03:15:21;3.60;;;1.55;;
25615;SDS011;13482;48.234;13.006;2022-11-02T03:23:34;4.13;;;1.75;;
25615;SDS011;13482;48.234;13.006;2022-11-02T03:26:28;2.17;;;1.70;;
25615;SDS011;13482;48.234;13.006;2022-11-02T03:29:05;2.33;;;1.48;;
25615;SDS011;13482;48.234;13.006;2022-11-02T03:31:42;4.05;;;1.83;;
25615;SDS011;13482;48.234;13.006;2022-11-02T03:40:32;2.03;;;1.60;;
25615;SDS011;13482;48.234;13.006;2022-11-02T03:43:04;4.80;;;2.00;;
25615;SDS011;13482;48.234;13.006;2022-11-02T03:45:37;2.92;;;1.75;;
25615;SDS011;13482;48.234;13.006;2022-11-02T03:48:10;3.05;;;1.80;;
25615;SDS011;13482;48.234;13.006;2022-11-02T03:50:41;1.98;;;1.70;;
25615;SDS011;13482;48.234;13.006;2022-11-02T03:56:35;2.30;;;1.77;;
25615;SDS011;13482;48.234;13.006;2022-11-02T03:59:07;2.30;;;1.70;;
25615;SDS011;13482;48.234;13.006;2022-11-02T04:01:41;2.38;;;1.60;;
25615;SDS011;13482;48.234;13.006;2022-11-02T04:04:11;2.75;;;1.90;;
25615;SDS011;13482;48.234;13.006;2022-11-02T04:06:39;2.70;;;1.65;;
25615;SDS011;13482;48.234;13.006;2022-11-02T04:09:08;2.30;;;1.80;;
25615;SDS011;13482;48.234;13.006;2022-11-02T04:11:36;2.10;;;1.70;;
25615;SDS011;13482;48.234;13.006;2022-11-02T04:14:22;3.08;;;1.73;;
25615;SDS011;13482;48.234;13.006;2022-11-02T04:17:06;2.30;;;2.00;;
25615;SDS011;13482;48.234;13.006;2022-11-02T04:19:59;2.40;;;1.80;;
25615;SDS011;13482;48.234;13.006;2022-11-02T04:22:26;2.10;;;1.70;;
25615;SDS011;13482;48.234;13.006;2022-11-02T04:25:13;2.50;;;1.92;;
25615;SDS011;13482;48.234;13.006;2022-11-02T04:27:45;2.05;;;1.73;;
25615;SDS011;13482;48.234;13.006;2022-11-02T04:30:16;2.10;;;1.65;;
25615;SDS011;13482;48.234;13.006;2022-11-02T04:32:47;2.85;;;1.90;;
25615;SDS011;13482;48.234;13.006;2022-11-02T04:35:35;2.40;;;1.77;;
25615;SDS011;13482;48.234;13.006;2022-11-02T04:38:03;2.95;;;1.77;;
25615;SDS011;13482;48.234;13.006;2022-11-02T04:40:48;2.28;;;1.80;;
25615;SDS011;13482;48.234;13.006;2022-11-02T04:43:36;2.25;;;1.73;;
25615;SDS011;13482;48.234;13.006;2022-11-02T04:46:03;2.22;;;1.65;;
25615;SDS011;13482;48.234;13.006;2022-11-02T04:48:30;2.63;;;2.00;;
25615;SDS011;13482;48.234;13.006;2022-11-02T04:50:58;2.47;;;1.88;;
25615;SDS011;13482;48.234;13.006;2022-11-02T04:53:25;3.35;;;2.22;;
25615;SDS011;13482;48.234;13.006;2022-11-02T04:55:52;4.03;;;2.75;;
25615;SDS011;13482;48.234;13.006;2022-11-02T04:58:19;4.05;;;2.55;;
25615;SDS011;13482;48.234;13.006;2022-11-02T05:00:47;3.67;;;2.60;;
25615;SDS011;13482;48.234;13.006;2022-11-02T05:03:14;3.97;;;2.70;;
25615;SDS011;13482;48.234;13.006;2022-11-02T05:05:41;3.17;;;2.47;;
25615;SDS011;13482;48.234;13.006;2022-11-02T05:08:09;3.15;;;2.15;;
25615;SDS011;13482;48.234;13.006;2022-11-02T05:10:36;3.65;;;2.40;;
25615;SDS011;13482;48.234;13.006;2022-11-02T05:13:03;3.72;;;2.45;;
25615;SDS011;13482;48.234;13.006;2022-11-02T05:15:31;3.75;;;2.45;;
25615;SDS011;13482;48.234;13.006;2022-11-02T05:17:58;3.40;;;2.20;;
25615;SDS011;13482;48.234;13.006;2022-11-02T05:20:25;3.05;;;2.00;;
25615;SDS011;13482;48.234;13.006;2022-11-02T05:22:52;3.10;;;2.33;;
25615;SDS011;13482;48.234;13.006;2022-11-02T05:25:20;2.47;;;1.73;;
25615;SDS011;13482;48.234;13.006;2022-11-02T05:27:47;3.58;;;2.05;;
25615;SDS011;13482;48.234;13.006;2022-11-02T05:30:14;4.03;;;1.83;;
25615;SDS011;13482;48.234;13.006;2022-11-02T05:32:42;3.25;;;2.08;;
25615;SDS011;13482;48.234;13.006;2022-11-02T05:35:09;3.67;;;2.50;;
25615;SDS011;13482;48.234;13.006;2022-11-02T05:37:36;2.95;;;2.40;;
25615;SDS011;13482;48.234;13.006;2022-11-02T05:40:03;2.90;;;2.20;;
25615;SDS011;13482;48.234;13.006;2022-11-02T05:42:32;3.15;;;2.45;;
25615;SDS011;13482;48.234;13.006;2022-11-02T05:44:59;3.45;;;2.38;;
25615;SDS011;13482;48.234;13.006;2022-11-02T05:47:26;3.33;;;2.25;;
25615;SDS011;13482;48.234;13.006;2022-11-02T05:49:54;2.47;;;1.83;;
25615;SDS011;13482;48.234;13.006;2022-11-02T05:52:21;2.97;;;2.10;;
25615;SDS011;13482;48.234;13.006;2022-11-02T05:54:48;3.15;;;2.15;;
25615;SDS011;13482;48.234;13.006;2022-11-02T05:57:15;3.00;;;2.20;;
25615;SDS011;13482;48.234;13.006;2022-11-02T05:59:43;3.25;;;1.95;;
25615;SDS011;13482;48.234;13.006;2022-11-02T06:02:14;3.20;;;2.42;;
25615;SDS011;13482;48.234;13.006;2022-11-02T06:04:41;3.10;;;2.40;;
25615;SDS011;13482;48.234;13.006;2022-11-02T06:07:08;4.13;;;2.33;;
25615;SDS011;13482;48.234;13.006;2022-11-02T06:09:36;3.13;;;2.40;;
25615;SDS011;13482;48.234;13.006;2022-11-02T06:12:03;2.70;;;2.17;;
25615;SDS011;13482;48.234;13.006;2022-11-02T06:14:31;4.43;;;2.13;;
25615;SDS011;13482;48.234;13.006;2022-11-02T06:16:58;3.15;;;2.17;;
25615;SDS011;13482;48.234;13.006;2022-11-02T06:19:25;3.47;;;2.20;;
25615;SDS011;13482;48.234;13.006;2022-11-02T06:21:52;4.07;;;2.10;;
25615;SDS011;13482;48.234;13.006;2022-11-02T06:24:19;2.80;;;1.90;;
25615;SDS011;13482;48.234;13.006;2022-11-02T06:26:46;2.75;;;1.60;;
25615;SDS011;13482;48.234;13.006;2022-11-02T06:29:14;2.20;;;1.58;;
25615;SDS011;13482;48.234;13.006;2022-11-02T06:31:41;2.42;;;1.67;;
25615;SDS011;13482;48.234;13.006;2022-11-02T06:34:08;3.28;;;1.80;;
25615;SDS011;13482;48.234;13.006;2022-11-02T06:36:35;2.65;;;1.73;;
25615;SDS011;13482;48.234;13.006;2022-11-02T06:39:04;2.85;;;1.80;;
25615;SDS011;13482;48.234;13.006;2022-11-02T06:41:31;3.15;;;2.05;;
25615;SDS011;13482;48.234;13.006;2022-11-02T06:43:58;2.67;;;1.70;;
25615;SDS011;13482;48.234;13.006;2022-11-02T06:46:26;3.83;;;2.03;;
25615;SDS011;13482;48.234;13.006;2022-11-02T06:48:53;2.53;;;1.90;;
25615;SDS011;13482;48.234;13.006;2022-11-02T06:51:20;2.10;;;1.65;;
25615;SDS011;13482;48.234;13.006;2022-11-02T06:53:47;3.47;;;1.95;;
25615;SDS011;13482;48.234;13.006;2022-11-02T06:56:15;3.15;;;2.00;;
25615;SDS011;13482;48.234;13.006;2022-11-02T06:58:42;2.38;;;1.70;;
25615;SDS011;13482;48.234;13.006;2022-11-02T07:01:09;2.67;;;2.20;;
25615;SDS011;13482;48.234;13.006;2022-11-02T07:03:36;3.83;;;2.35;;
25615;SDS011;13482;48.234;13.006;2022-11-02T07:06:04;3.60;;;2.50;;
25615;SDS011;13482;48.234;13.006;2022-11-02T07:08:38;2.90;;;2.38;;
25615;SDS011;13482;48.234;13.006;2022-11-02T07:11:05;2.90;;;1.98;;
25615;SDS011;13482;48.234;13.006;2022-11-02T07:13:32;3.10;;;2.20;;
25615;SDS011;13482;48.234;13.006;2022-11-02T07:15:59;2.67;;;1.88;;
25615;SDS011;13482;48.234;13.006;2022-11-02T07:18:26;2.35;;;1.80;;
25615;SDS011;13482;48.234;13.006;2022-11-02T07:20:54;2.53;;;1.75;;
25615;SDS011;13482;48.234;13.006;2022-11-02T07:23:25;1.90;;;1.47;;
25615;SDS011;13482;48.234;13.006;2022-11-02T07:25:52;2.95;;;1.70;;
25615;SDS011;13482;48.234;13.006;2022-11-02T07:28:20;2.85;;;2.05;;
25615;SDS011;13482;48.234;13.006;2022-11-02T07:30:47;2.35;;;1.80;;
25615;SDS011;13482;48.234;13.006;2022-11-02T07:33:14;2.67;;;1.65;;
25615;SDS011;13482;48.234;13.006;2022-11-02T07:35:41;2.97;;;1.73;;
25615;SDS011;13482;48.234;13.006;2022-11-02T07:38:09;3.33;;;2.22;;
25615;SDS011;13482;48.234;13.006;2022-11-02T07:40:37;2.70;;;1.80;;
25615;SDS011;13482;48.234;13.006;2022-11-02T07:43:04;2.80;;;1.80;;
25615;SDS011;13482;48.234;13.006;2022-11-02T07:45:33;2.00;;;1.50;;
25615;SDS011;13482;48.234;13.006;2022-11-02T07:48:00;2.30;;;1.52;;
25615;SDS011;13482;48.234;13.006;2022-11-02T07:50:27;4.15;;;1.70;;
25615;SDS011;13482;48.234;13.006;2022-11-02T07:52:55;2.60;;;1.70;;
25615;SDS011;13482;48.234;13.006;2022-11-02T07:55:24;2.58;;;1.67;;
25615;SDS011;13482;48.234;13.006;2022-11-02T07:57:55;2.78;;;1.63;;
25615;SDS011;13482;48.234;13.006;2022-11-02T08:00:26;3.15;;;1.75;;
25615;SDS011;13482;48.234;13.006;2022-11-02T08:02:57;2.72;;;1.70;;
25615;SDS011;13482;48.234;13.006;2022-11-02T08:05:27;4.55;;;1.75;;
25615;SDS011;13482;48.234;13.006;2022-11-02T08:08:06;2.38;;;1.83;;
25615;SDS011;13482;48.234;13.006;2022-11-02T08:10:38;2.90;;;1.75;;
25615;SDS011;13482;48.234;13.006;2022-11-02T08:13:06;2.55;;;1.65;;
25615;SDS011;13482;48.234;13.006;2022-11-02T08:15:35;2.47;;;1.90;;
25615;SDS011;13482;48.234;13.006;2022-11-02T08:18:03;2.50;;;1.80;;
25615;SDS011;13482;48.234;13.006;2022-11-02T08:20:35;3.22;;;1.75;;
25615;SDS011;13482;48.234;13.006;2022-11-02T08:23:02;3.55;;;2.10;;
25615;SDS011;13482;48.234;13.006;2022-11-02T08:25:30;2.60;;;2.10;;
25615;SDS011;13482;48.234;13.006;2022-11-02T08:27:59;2.97;;;2.13;;
25615;SDS011;13482;48.234;13.006;2022-11-02T08:30:27;3.33;;;2.33;;
25615;SDS011;13482;48.234;13.006;2022-11-02T08:33:04;3.58;;;2.47;;
25615;SDS011;13482;48.234;13.006;2022-11-02T08:35:33;3.15;;;2.53;;
25615;SDS011;13482;48.234;13.006;2022-11-02T08:38:03;4.53;;;2.47;;
25615;SDS011;13482;48.234;13.006;2022-11-02T08:40:31;2.75;;;2.20;;
25615;SDS011;13482;48.234;13.006;2022-11-02T08:43:07;4.05;;;2.30;;
25615;SDS011;13482;48.234;13.006;2022-11-02T08:45:37;2.67;;;2.00;;
25615;SDS011;13482;48.234;13.006;2022-11-02T08:48:27;3.15;;;2.13;;
25615;SDS011;13482;48.234;13.006;2022-11-02T08:50:55;3.92;;;2.17;;
25615;SDS011;13482;48.234;13.006;2022-11-02T08:53:22;2.65;;;1.88;;
25615;SDS011;13482;48.234;13.006;2022-11-02T08:55:49;2.85;;;2.03;;
25615;SDS011;13482;48.234;13.006;2022-11-02T08:58:16;2.72;;;1.80;;
25615;SDS011;13482;48.234;13.006;2022-11-02T09:00:44;2.38;;;1.85;;
25615;SDS011;13482;48.234;13.006;2022-11-02T09:03:12;3.47;;;1.92;;
25615;SDS011;13482;48.234;13.006;2022-11-02T09:05:41;3.15;;;1.80;;
25615;SDS011;13482;48.234;13.006;2022-11-02T09:08:14;3.03;;;1.90;;
25615;SDS011;13482;48.234;13.006;2022-11-02T09:10:48;3.13;;;1.90;;
25615;SDS011;13482;48.234;13.006;2022-11-02T09:13:17;3.40;;;1.60;;
25615;SDS011;13482;48.234;13.006;2022-11-02T09:15:51;3.08;;;1.63;;
25615;SDS011;13482;48.234;13.006;2022-11-02T09:18:21;3.13;;;1.67;;
25615;SDS011;13482;48.234;13.006;2022-11-02T09:20:49;2.45;;;1.55;;
25615;SDS011;13482;48.234;13.006;2022-11-02T09:23:17;2.78;;;1.65;;
25615;SDS011;13482;48.234;13.006;2022-11-02T09:25:46;2.33;;;1.40;;
25615;SDS011;13482;48.234;13.006;2022-11-02T09:28:14;2.58;;;1.63;;
25615;SDS011;13482;48.234;13.006;2022-11-02T09:30:42;2.78;;;1.58;;
25615;SDS011;13482;48.234;13.006;2022-11-02T09:33:09;2.65;;;1.70;;
25615;SDS011;13482;48.234;13.006;2022-11-02T09:35:40;4.15;;;1.67;;
25615;SDS011;13482;48.234;13.006;2022-11-02T09:38:11;2.95;;;1.63;;
25615;SDS011;13482;48.234;13.006;2022-11-02T09:40:44;3.05;;;1.30;;
25615;SDS011;13482;48.234;13.006;2022-11-02T09:48:31;2.72;;;1.30;;
25615;SDS011;13482;48.234;13.006;2022-11-02T09:51:16;3.20;;;1.63;;
25615;SDS011;13482;48.234;13.006;2022-11-02T09:56:55;2.15;;;1.33;;
25615;SDS011;13482;48.234;13.006;2022-11-02T09:59:27;3.85;;;1.65;;
25615;SDS011;13482;48.234;13.006;2022-11-02T10:02:22;2.50;;;1.27;;
25615;SDS011;13482;48.234;13.006;2022-11-02T10:08:24;1.73;;;1.02;;
25615;SDS011;13482;48.234;13.006;2022-11-02T10:16:35;2.30;;;1.25;;
25615;SDS011;13482;48.234;13.006;2022-11-02T10:19:13;3.13;;;1.20;;
25615;SDS011;13482;48.234;13.006;2022-11-02T10:21:48;2.17;;;1.02;;
25615;SDS011;13482;48.234;13.006;2022-11-02T10:26:59;2.50;;;1.20;;
25615;SDS011;13482;48.234;13.006;2022-11-02T10:32:27;2.63;;;1.10;;
25615;SDS011;13482;48.234;13.006;2022-11-02T10:34:58;1.70;;;1.00;;
25615;SDS011;13482;48.234;13.006;2022-11-02T10:46:51;2.00;;;0.90;;
25615;SDS011;13482;48.234;13.006;2022-11-02T10:49:46;2.10;;;0.93;;
25615;SDS011;13482;48.234;13.006;2022-11-02T10:52:40;1.35;;;0.80;;
25615;SDS011;13482;48.234;13.006;2022-11-02T10:55:19;2.70;;;0.93;;
25615;SDS011;13482;48.234;13.006;2022-11-02T10:58:03;2.42;;;0.70;;
25615;SDS011;13482;48.234;13.006;2022-11-02T11:00:35;1.50;;;0.70;;
25615;SDS011;13482;48.234;13.006;2022-11-02T11:03:04;1.95;;;0.80;;
25615;SDS011;13482;48.234;13.006;2022-11-02T11:08:34;1.52;;;0.63;;
25615;SDS011;13482;48.234;13.006;2022-11-02T11:16:48;1.55;;;0.70;;
25615;SDS011;13482;48.234;13.006;2022-11-02T11:22:22;1.85;;;0.52;;
25615;SDS011;13482;48.234;13.006;2022-11-02T11:30:25;2.15;;;0.73;;
25615;SDS011;13482;48.234;13.006;2022-11-02T11:33:21;1.63;;;0.73;;
25615;SDS011;13482;48.234;13.006;2022-11-02T11:35:56;1.65;;;0.60;;
25615;SDS011;13482;48.234;13.006;2022-11-02T11:38:23;1.92;;;0.70;;
25615;SDS011;13482;48.234;13.006;2022-11-02T11:40:53;2.22;;;0.88;;
25615;SDS011;13482;48.234;13.006;2022-11-02T11:43:24;2.80;;;1.00;;
25615;SDS011;13482;48.234;13.006;2022-11-02T11:48:46;2.25;;;0.82;;
25615;SDS011;13482;48.234;13.006;2022-11-02T11:56:50;1.85;;;0.70;;
25615;SDS011;13482;48.234;13.006;2022-11-02T11:59:54;2.17;;;0.70;;
25615;SDS011;13482;48.234;13.006;2022-11-02T12:02:29;3.03;;;0.90;;
25615;SDS011;13482;48.234;13.006;2022-11-02T12:05:13;1.10;;;0.60;;
25615;SDS011;13482;48.234;13.006;2022-11-02T12:13:17;1.50;;;0.80;;
25615;SDS011;13482;48.234;13.006;2022-11-02T12:16:17;1.75;;;0.98;;
25615;SDS011;13482;48.234;13.006;2022-11-02T12:19:30;3.97;;;1.20;;
25615;SDS011;13482;48.234;13.006;2022-11-02T12:49:12;4.40;;;0.85;;
25615;SDS011;13482;48.234;13.006;2022-11-02T12:54:54;1.75;;;0.60;;
25615;SDS011;13482;48.234;13.006;2022-11-02T12:57:25;2.90;;;1.02;;
25615;SDS011;13482;48.234;13.006;2022-11-02T12:59:58;2.20;;;0.75;;
25615;SDS011;13482;48.234;13.006;2022-11-02T13:05:16;1.80;;;0.60;;
25615;SDS011;13482;48.234;13.006;2022-11-02T13:08:20;2.33;;;0.80;;
25615;SDS011;13482;48.234;13.006;2022-11-02T13:10:56;2.63;;;0.90;;
25615;SDS011;13482;48.234;13.006;2022-11-02T13:16:07;1.77;;;0.68;;
25615;SDS011;13482;48.234;13.006;2022-11-02T13:18:38;2.00;;;0.77;;
25615;SDS011;13482;48.234;13.006;2022-11-02T13:21:13;2.35;;;0.80;;
25615;SDS011;13482;48.234;13.006;2022-11-02T13:23:48;3.30;;;0.90;;
25615;SDS011;13482;48.234;13.006;2022-11-02T13:29:01;1.73;;;0.80;;
25615;SDS011;13482;48.234;13.006;2022-11-02T13:31:36;2.75;;;0.90;;
25615;SDS011;13482;48.234;13.006;2022-11-02T13:34:13;2.92;;;0.90;;
25615;SDS011;13482;48.234;13.006;2022-11-02T13:36:46;2.28;;;0.80;;
25615;SDS011;13482;48.234;13.006;2022-11-02T13:39:22;2.47;;;0.60;;
25615;SDS011;13482;48.234;13.006;2022-11-02T13:51:41;1.88;;;0.73;;
25615;SDS011;13482;48.234;13.006;2022-11-02T13:54:26;1.67;;;0.77;;
25615;SDS011;13482;48.234;13.006;2022-11-02T13:57:00;1.90;;;0.60;;
25615;SDS011;13482;48.234;13.006;2022-11-02T13:59:29;2.25;;;0.80;;
25615;SDS011;13482;48.234;13.006;2022-11-02T14:02:10;2.35;;;0.68;;
25615;SDS011;13482;48.234;13.006;2022-11-02T14:04:44;2.05;;;0.70;;
25615;SDS011;13482;48.234;13.006;2022-11-02T14:10:08;2.55;;;0.50;;
25615;SDS011;13482;48.234;13.006;2022-11-02T14:12:42;2.58;;;0.80;;
25615;SDS011;13482;48.234;13.006;2022-11-02T14:25:50;2.20;;;0.80;;
25615;SDS011;13482;48.234;13.006;2022-11-02T14:48:44;1.90;;;0.77;;
25615;SDS011;13482;48.234;13.006;2022-11-02T14:51:22;2.05;;;0.60;;
25615;SDS011;13482;48.234;13.006;2022-11-02T14:54:13;2.00;;;0.60;;
25615;SDS011;13482;48.234;13.006;2022-11-02T14:56:49;1.88;;;0.65;;
25615;SDS011;13482;48.234;13.006;2022-11-02T14:59:39;2.35;;;0.80;;
25615;SDS011;13482;48.234;13.006;2022-11-02T15:02:21;2.00;;;0.70;;
25615;SDS011;13482;48.234;13.006;2022-11-02T15:05:13;1.92;;;0.70;;
25615;SDS011;13482;48.234;13.006;2022-11-02T15:08:07;1.88;;;0.60;;
25615;SDS011;13482;48.234;13.006;2022-11-02T15:10:48;3.13;;;0.77;;
25615;SDS011;13482;48.234;13.006;2022-11-02T15:21:29;2.90;;;0.98;;
25615;SDS011;13482;48.234;13.006;2022-11-02T15:26:34;1.67;;;0.77;;
25615;SDS011;13482;48.234;13.006;2022-11-02T15:32:23;1.83;;;0.90;;
25615;SDS011;13482;48.234;13.006;2022-11-02T15:34:54;2.88;;;1.17;;
25615;SDS011;13482;48.234;13.006;2022-11-02T15:37:24;3.35;;;1.10;;
25615;SDS011;13482;48.234;13.006;2022-11-02T15:39:58;1.70;;;0.75;;
25615;SDS011;13482;48.234;13.006;2022-11-02T15:48:47;2.97;;;0.90;;
25615;SDS011;13482;48.234;13.006;2022-11-02T16:01:03;8.77;;;3.67;;
25615;SDS011;13482;48.234;13.006;2022-11-02T16:03:43;5.70;;;3.05;;
25615;SDS011;13482;48.234;13.006;2022-11-02T16:06:25;9.23;;;3.35;;
25615;SDS011;13482;48.234;13.006;2022-11-02T16:09:02;8.07;;;3.85;;
25615;SDS011;13482;48.234;13.006;2022-11-02T16:14:38;7.90;;;3.20;;
25615;SDS011;13482;48.234;13.006;2022-11-02T16:17:17;5.35;;;2.83;;
25615;SDS011;13482;48.234;13.006;2022-11-02T16:19:46;3.67;;;2.20;;
25615;SDS011;13482;48.234;13.006;2022-11-02T16:22:23;8.82;;;4.03;;
25615;SDS011;13482;48.234;13.006;2022-11-02T16:24:52;8.02;;;5.18;;
25615;SDS011;13482;48.234;13.006;2022-11-02T16:27:20;10.52;;;5.60;;
25615;SDS011;13482;48.234;13.006;2022-11-02T16:29:48;8.13;;;4.95;;
25615;SDS011;13482;48.234;13.006;2022-11-02T16:32:16;10.57;;;5.60;;
25615;SDS011;13482;48.234;13.006;2022-11-02T16:34:43;8.40;;;4.68;;
25615;SDS011;13482;48.234;13.006;2022-11-02T16:37:11;9.13;;;4.85;;
25615;SDS011;13482;48.234;13.006;2022-11-02T16:39:45;6.93;;;4.35;;
25615;SDS011;13482;48.234;13.006;2022-11-02T16:42:14;7.22;;;4.20;;
25615;SDS011;13482;48.234;13.006;2022-11-02T16:44:58;7.43;;;4.40;;
25615;SDS011;13482;48.234;13.006;2022-11-02T16:47:34;10.18;;;4.72;;
25615;SDS011;13482;48.234;13.006;2022-11-02T16:50:19;9.65;;;6.80;;
25615;SDS011;13482;48.234;13.006;2022-11-02T16:52:56;8.27;;;5.68;;
25615;SDS011;13482;48.234;13.006;2022-11-02T16:58:20;9.15;;;5.05;;
25615;SDS011;13482;48.234;13.006;2022-11-02T17:00:58;7.72;;;4.72;;
25615;SDS011;13482;48.234;13.006;2022-11-02T17:03:29;6.32;;;3.60;;
25615;SDS011;13482;48.234;13.006;2022-11-02T17:06:00;5.30;;;3.63;;
25615;SDS011;13482;48.234;13.006;2022-11-02T17:08:32;5.97;;;4.43;;
25615;SDS011;13482;48.234;13.006;2022-11-02T17:11:03;6.93;;;4.15;;
25615;SDS011;13482;48.234;13.006;2022-11-02T17:13:33;6.88;;;4.45;;
25615;SDS011;13482;48.234;13.006;2022-11-02T17:16:04;10.75;;;6.90;;
25615;SDS011;13482;48.234;13.006;2022-11-02T17:18:36;8.70;;;5.47;;
25615;SDS011;13482;48.234;13.006;2022-11-02T17:23:53;10.13;;;6.45;;
25615;SDS011;13482;48.234;13.006;2022-11-02T17:26:30;9.40;;;6.43;;
25615;SDS011;13482;48.234;13.006;2022-11-02T17:29:27;10.07;;;6.38;;
25615;SDS011;13482;48.234;13.006;2022-11-02T17:31:56;10.63;;;6.53;;
25615;SDS011;13482;48.234;13.006;2022-11-02T17:34:26;8.25;;;6.05;;
25615;SDS011;13482;48.234;13.006;2022-11-02T17:36:53;9.30;;;4.82;;
25615;SDS011;13482;48.234;13.006;2022-11-02T17:39:21;7.60;;;4.70;;
25615;SDS011;13482;48.234;13.006;2022-11-02T17:41:51;10.35;;;6.40;;
25615;SDS011;13482;48.234;13.006;2022-11-02T17:44:39;11.25;;;6.10;;
25615;SDS011;13482;48.234;13.006;2022-11-02T17:47:09;9.57;;;5.47;;
25615;SDS011;13482;48.234;13.006;2022-11-02T17:49:38;8.80;;;5.67;;
25615;SDS011;13482;48.234;13.006;2022-11-02T17:52:05;12.38;;;6.47;;
25615;SDS011;13482;48.234;13.006;2022-11-02T17:54:34;9.70;;;5.85;;
25615;SDS011;13482;48.234;13.006;2022-11-02T17:57:03;8.05;;;5.28;;
25615;SDS011;13482;48.234;13.006;2022-11-02T17:59:37;7.45;;;4.95;;
25615;SDS011;13482;48.234;13.006;2022-11-02T18:02:09;7.07;;;5.00;;
25615;SDS011;13482;48.234;13.006;2022-11-02T18:04:41;6.70;;;4.20;;
25615;SDS011;13482;48.234;13.006;2022-11-02T18:07:09;5.72;;;3.83;;
25615;SDS011;13482;48.234;13.006;2022-11-02T18:09:37;5.90;;;3.05;;
25615;SDS011;13482;48.234;13.006;2022-11-02T18:12:05;4.68;;;2.97;;
25615;SDS011;13482;48.234;13.006;2022-11-02T18:14:34;5.10;;;3.33;;
25615;SDS011;13482;48.234;13.006;2022-11-02T18:17:02;5.43;;;3.45;;
25615;SDS011;13482;48.234;13.006;2022-11-02T18:19:29;4.45;;;2.95;;
25615;SDS011;13482;48.234;13.006;2022-11-02T18:21:58;5.53;;;3.47;;
25615;SDS011;13482;48.234;13.006;2022-11-02T18:24:26;5.03;;;3.22;;
25615;SDS011;13482;48.234;13.006;2022-11-02T18:26:53;4.07;;;3.00;;
25615;SDS011;13482;48.234;13.006;2022-11-02T18:29:20;6.00;;;3.45;;
25615;SDS011;13482;48.234;13.006;2022-11-02T18:31:48;5.32;;;2.97;;
25615;SDS011;13482;48.234;13.006;2022-11-02T18:34:15;5.18;;;3.05;;
25615;SDS011;13482;48.234;13.006;2022-11-02T18:36:42;3.90;;;2.65;;
25615;SDS011;13482;48.234;13.006;2022-11-02T18:39:10;4.15;;;2.75;;
25615;SDS011;13482;48.234;13.006;2022-11-02T18:41:37;4.95;;;2.78;;
25615;SDS011;13482;48.234;13.006;2022-11-02T18:44:05;5.53;;;2.60;;